Terminal Aerodrome Forecast
Issued by NWS

Home | Current Version | Previous Version | Text Only | Print | Product List | Glossary On
Versions: 1 2 3 4 5 6 7 8 9 10 11 12
000
FTUS46 KSTO 200538
TAFRDD
TAF
KRDD 200538Z 2006/2106 31018G32KT P6SM -RA OVC050
      TEMPO 2006/2008 25015KT 4SM RA OVC020
     FM200900 25012KT P6SM OVC050
     FM201100 18004KT P6SM BKN100
     FM202000 18008KT P6SM BKN050=

USA.gov is the U.S. government's official web portal to all federal, state and local government web resources and services.